sensor_id;sensor_type;location;lat;lon;timestamp;temperature;humidity
52943;DHT22;38809;53.300;6.614;2022-11-20T00:03:42;0.90;99.90
52943;DHT22;38809;53.300;6.614;2022-11-20T00:06:10;0.90;99.90
52943;DHT22;38809;53.300;6.614;2022-11-20T00:08:37;0.90;99.90
52943;DHT22;38809;53.300;6.614;2022-11-20T00:13:29;0.90;99.90
52943;DHT22;38809;53.300;6.614;2022-11-20T00:15:59;1.00;99.90
52943;DHT22;38809;53.300;6.614;2022-11-20T00:18:26;0.90;99.90
52943;DHT22;38809;53.300;6.614;2022-11-20T00:20:52;1.70;99.90
52943;DHT22;38809;53.300;6.614;2022-11-20T00:23:18;1.90;99.90
52943;DHT22;38809;53.300;6.614;2022-11-20T00:25:43;0.90;99.90
52943;DHT22;38809;53.300;6.614;2022-11-20T00:28:09;1.10;99.90
52943;DHT22;38809;53.300;6.614;2022-11-20T00:30:34;0.90;99.90
52943;DHT22;38809;53.300;6.614;2022-11-20T00:33:00;0.90;99.90
52943;DHT22;38809;53.300;6.614;2022-11-20T00:35:26;1.00;99.90
52943;DHT22;38809;53.300;6.614;2022-11-20T00:37:51;1.00;99.90
52943;DHT22;38809;53.300;6.614;2022-11-20T00:40:17;2.00;99.90
52943;DHT22;38809;53.300;6.614;2022-11-20T00:42:43;1.00;99.90
52943;DHT22;38809;53.300;6.614;2022-11-20T00:45:08;1.00;99.90
52943;DHT22;38809;53.300;6.614;2022-11-20T00:47:34;1.00;99.90
52943;DHT22;38809;53.300;6.614;2022-11-20T00:50:00;1.00;99.90
52943;DHT22;38809;53.300;6.614;2022-11-20T00:52:25;2.20;99.90
52943;DHT22;38809;53.300;6.614;2022-11-20T00:54:51;1.00;99.90
52943;DHT22;38809;53.300;6.614;2022-11-20T00:57:17;1.00;99.90
52943;DHT22;38809;53.300;6.614;2022-11-20T00:59:42;1.30;99.90
52943;DHT22;38809;53.300;6.614;2022-11-20T01:02:08;1.70;99.90
52943;DHT22;38809;53.300;6.614;2022-11-20T01:04:33;1.00;99.90
52943;DHT22;38809;53.300;6.614;2022-11-20T01:06:59;0.90;99.90
52943;DHT22;38809;53.300;6.614;2022-11-20T01:09:25;0.90;99.90
52943;DHT22;38809;53.300;6.614;2022-11-20T01:11:50;1.00;99.90
52943;DHT22;38809;53.300;6.614;2022-11-20T01:14:18;0.90;99.90
52943;DHT22;38809;53.300;6.614;2022-11-20T01:16:47;0.90;99.90
52943;DHT22;38809;53.300;6.614;2022-11-20T01:19:22;2.50;99.90
52943;DHT22;38809;53.300;6.614;2022-11-20T01:21:51;1.00;99.90
52943;DHT22;38809;53.300;6.614;2022-11-20T01:24:18;1.10;99.90
52943;DHT22;38809;53.300;6.614;2022-11-20T01:26:45;1.00;99.90
52943;DHT22;38809;53.300;6.614;2022-11-20T01:29:20;1.00;99.90
52943;DHT22;38809;53.300;6.614;2022-11-20T01:31:47;1.00;99.90
52943;DHT22;38809;53.300;6.614;2022-11-20T01:34:15;1.80;99.90
52943;DHT22;38809;53.300;6.614;2022-11-20T01:36:42;0.90;99.90
52943;DHT22;38809;53.300;6.614;2022-11-20T01:39:12;0.90;99.90
52943;DHT22;38809;53.300;6.614;2022-11-20T01:41:38;1.00;99.90
52943;DHT22;38809;53.300;6.614;2022-11-20T01:44:57;1.00;99.90
52943;DHT22;38809;53.300;6.614;2022-11-20T01:50:23;2.40;99.90
52943;DHT22;38809;53.300;6.614;2022-11-20T01:52:57;1.00;99.90
52943;DHT22;38809;53.300;6.614;2022-11-20T01:55:32;1.00;99.90
52943;DHT22;38809;53.300;6.614;2022-11-20T01:57:58;0.90;99.90
52943;DHT22;38809;53.300;6.614;2022-11-20T02:00:25;1.10;99.90
52943;DHT22;38809;53.300;6.614;2022-11-20T02:02:55;1.00;99.90
52943;DHT22;38809;53.300;6.614;2022-11-20T02:05:23;0.90;99.90
52943;DHT22;38809;53.300;6.614;2022-11-20T02:07:50;1.00;99.90
52943;DHT22;38809;53.300;6.614;2022-11-20T02:10:18;1.00;99.90
52943;DHT22;38809;53.300;6.614;2022-11-20T02:12:44;2.40;99.90
52943;DHT22;38809;53.300;6.614;2022-11-20T02:15:28;0.90;99.90
52943;DHT22;38809;53.300;6.614;2022-11-20T02:17:54;0.90;99.90
52943;DHT22;38809;53.300;6.614;2022-11-20T02:20:20;0.90;99.90
52943;DHT22;38809;53.300;6.614;2022-11-20T02:23:02;0.90;99.90
52943;DHT22;38809;53.300;6.614;2022-11-20T02:25:30;1.00;99.90
52943;DHT22;38809;53.300;6.614;2022-11-20T02:27:58;1.00;99.90
52943;DHT22;38809;53.300;6.614;2022-11-20T02:30:24;-0.40;99.90
52943;DHT22;38809;53.300;6.614;2022-11-20T02:32:49;0.80;99.90
52943;DHT22;38809;53.300;6.614;2022-11-20T02:37:45;1.10;99.90
52943;DHT22;38809;53.300;6.614;2022-11-20T02:40:12;1.10;99.90
52943;DHT22;38809;53.300;6.614;2022-11-20T02:42:38;1.20;99.90
52943;DHT22;38809;53.300;6.614;2022-11-20T02:45:04;1.20;99.90
52943;DHT22;38809;53.300;6.614;2022-11-20T02:47:31;1.20;99.90
52943;DHT22;38809;53.300;6.614;2022-11-20T02:49:57;2.90;99.90
52943;DHT22;38809;53.300;6.614;2022-11-20T02:52:23;1.10;99.90
52943;DHT22;38809;53.300;6.614;2022-11-20T02:54:49;2.70;99.90
52943;DHT22;38809;53.300;6.614;2022-11-20T02:57:15;1.10;99.90
52943;DHT22;38809;53.300;6.614;2022-11-20T02:59:40;1.70;99.90
52943;DHT22;38809;53.300;6.614;2022-11-20T03:02:06;1.10;99.90
52943;DHT22;38809;53.300;6.614;2022-11-20T03:04:32;1.20;99.90
52943;DHT22;38809;53.300;6.614;2022-11-20T03:06:58;1.30;99.90
52943;DHT22;38809;53.300;6.614;2022-11-20T03:09:23;1.90;99.90
52943;DHT22;38809;53.300;6.614;2022-11-20T03:11:49;1.60;99.90
52943;DHT22;38809;53.300;6.614;2022-11-20T03:14:14;1.00;99.90
52943;DHT22;38809;53.300;6.614;2022-11-20T03:16:40;1.10;99.90
52943;DHT22;38809;53.300;6.614;2022-11-20T03:19:06;2.90;99.90
52943;DHT22;38809;53.300;6.614;2022-11-20T03:21:35;1.00;99.90
52943;DHT22;38809;53.300;6.614;2022-11-20T03:24:01;0.90;99.90
52943;DHT22;38809;53.300;6.614;2022-11-20T03:26:27;0.90;99.90
52943;DHT22;38809;53.300;6.614;2022-11-20T03:28:55;0.90;99.90
52943;DHT22;38809;53.300;6.614;2022-11-20T03:31:24;2.70;99.90
52943;DHT22;38809;53.300;6.614;2022-11-20T03:33:51;0.90;99.90
52943;DHT22;38809;53.300;6.614;2022-11-20T03:36:18;1.70;99.90
52943;DHT22;38809;53.300;6.614;2022-11-20T03:38:44;1.00;99.90
52943;DHT22;38809;53.300;6.614;2022-11-20T03:41:19;1.70;99.90
52943;DHT22;38809;53.300;6.614;2022-11-20T03:43:50;1.00;99.90
52943;DHT22;38809;53.300;6.614;2022-11-20T03:46:16;1.00;99.90
52943;DHT22;38809;53.300;6.614;2022-11-20T03:48:42;1.40;99.90
52943;DHT22;38809;53.300;6.614;2022-11-20T03:53:34;2.10;99.90
52943;DHT22;38809;53.300;6.614;2022-11-20T03:56:00;1.10;99.90
52943;DHT22;38809;53.300;6.614;2022-11-20T03:58:25;1.10;99.90
52943;DHT22;38809;53.300;6.614;2022-11-20T04:00:51;1.10;99.90
52943;DHT22;38809;53.300;6.614;2022-11-20T04:03:17;1.10;99.90
52943;DHT22;38809;53.300;6.614;2022-11-20T04:05:42;1.00;99.90
52943;DHT22;38809;53.300;6.614;2022-11-20T04:08:08;1.10;99.90
52943;DHT22;38809;53.300;6.614;2022-11-20T04:10:34;1.10;99.90
52943;DHT22;38809;53.300;6.614;2022-11-20T04:12:59;1.10;99.90
52943;DHT22;38809;53.300;6.614;2022-11-20T04:15:25;2.90;99.90
52943;DHT22;38809;53.300;6.614;2022-11-20T04:17:51;1.10;99.90
52943;DHT22;38809;53.300;6.614;2022-11-20T04:20:16;1.10;99.90
52943;DHT22;38809;53.300;6.614;2022-11-20T04:22:42;2.00;99.90
52943;DHT22;38809;53.300;6.614;2022-11-20T04:25:08;1.10;99.90
52943;DHT22;38809;53.300;6.614;2022-11-20T04:27:34;1.10;99.90
52943;DHT22;38809;53.300;6.614;2022-11-20T04:29:59;1.20;99.90
52943;DHT22;38809;53.300;6.614;2022-11-20T04:32:25;1.20;99.90
52943;DHT22;38809;53.300;6.614;2022-11-20T04:34:50;2.70;99.90
52943;DHT22;38809;53.300;6.614;2022-11-20T04:37:16;2.90;99.90
52943;DHT22;38809;53.300;6.614;2022-11-20T04:39:43;2.30;99.90
52943;DHT22;38809;53.300;6.614;2022-11-20T04:42:10;1.10;99.90
52943;DHT22;38809;53.300;6.614;2022-11-20T04:44:54;2.60;99.90
52943;DHT22;38809;53.300;6.614;2022-11-20T04:47:20;1.10;99.90
52943;DHT22;38809;53.300;6.614;2022-11-20T04:49:46;2.60;99.90
52943;DHT22;38809;53.300;6.614;2022-11-20T04:52:12;1.00;99.90
52943;DHT22;38809;53.300;6.614;2022-11-20T04:54:37;2.90;99.90
52943;DHT22;38809;53.300;6.614;2022-11-20T04:57:03;1.10;99.90
52943;DHT22;38809;53.300;6.614;2022-11-20T04:59:28;1.10;99.90
52943;DHT22;38809;53.300;6.614;2022-11-20T05:01:54;1.10;99.90
52943;DHT22;38809;53.300;6.614;2022-11-20T05:04:20;1.10;99.90
52943;DHT22;38809;53.300;6.614;2022-11-20T05:06:46;1.10;99.90
52943;DHT22;38809;53.300;6.614;2022-11-20T05:09:12;1.10;99.90
52943;DHT22;38809;53.300;6.614;2022-11-20T05:11:38;1.20;99.90
52943;DHT22;38809;53.300;6.614;2022-11-20T05:14:04;2.70;99.90
52943;DHT22;38809;53.300;6.614;2022-11-20T05:16:29;1.20;99.90
52943;DHT22;38809;53.300;6.614;2022-11-20T05:18:55;1.10;99.90
52943;DHT22;38809;53.300;6.614;2022-11-20T05:21:21;1.10;99.90
52943;DHT22;38809;53.300;6.614;2022-11-20T05:23:47;1.10;99.90
52943;DHT22;38809;53.300;6.614;2022-11-20T05:26:15;1.10;99.90
52943;DHT22;38809;53.300;6.614;2022-11-20T05:28:41;1.10;99.90
52943;DHT22;38809;53.300;6.614;2022-11-20T05:31:09;1.10;99.90
52943;DHT22;38809;53.300;6.614;2022-11-20T05:33:35;1.10;99.90
52943;DHT22;38809;53.300;6.614;2022-11-20T05:36:03;1.10;99.90
52943;DHT22;38809;53.300;6.614;2022-11-20T05:38:29;1.20;99.90
52943;DHT22;38809;53.300;6.614;2022-11-20T05:40:55;1.10;99.90
52943;DHT22;38809;53.300;6.614;2022-11-20T05:43:20;2.00;99.90
52943;DHT22;38809;53.300;6.614;2022-11-20T05:45:53;1.00;99.90
52943;DHT22;38809;53.300;6.614;2022-11-20T05:48:19;1.10;99.90
52943;DHT22;38809;53.300;6.614;2022-11-20T05:50:45;1.10;99.90
52943;DHT22;38809;53.300;6.614;2022-11-20T05:53:10;1.90;99.90
52943;DHT22;38809;53.300;6.614;2022-11-20T05:55:36;1.10;99.90
52943;DHT22;38809;53.300;6.614;2022-11-20T05:58:01;1.90;99.90
52943;DHT22;38809;53.300;6.614;2022-11-20T06:00:27;1.80;99.90
52943;DHT22;38809;53.300;6.614;2022-11-20T06:02:53;2.70;99.90
52943;DHT22;38809;53.300;6.614;2022-11-20T06:05:18;1.10;99.90
52943;DHT22;38809;53.300;6.614;2022-11-20T06:07:44;2.80;99.90
52943;DHT22;38809;53.300;6.614;2022-11-20T06:10:10;1.10;99.90
52943;DHT22;38809;53.300;6.614;2022-11-20T06:12:36;1.20;99.90
52943;DHT22;38809;53.300;6.614;2022-11-20T06:15:02;1.20;99.90
52943;DHT22;38809;53.300;6.614;2022-11-20T06:17:28;1.20;99.90
52943;DHT22;38809;53.300;6.614;2022-11-20T06:19:53;1.20;99.90
52943;DHT22;38809;53.300;6.614;2022-11-20T06:22:19;3.10;99.90
52943;DHT22;38809;53.300;6.614;2022-11-20T06:24:45;1.30;99.90
52943;DHT22;38809;53.300;6.614;2022-11-20T06:27:10;1.30;99.90
52943;DHT22;38809;53.300;6.614;2022-11-20T06:29:36;2.20;99.90
52943;DHT22;38809;53.300;6.614;2022-11-20T06:32:01;1.30;99.90
52943;DHT22;38809;53.300;6.614;2022-11-20T06:34:27;1.20;99.90
52943;DHT22;38809;53.300;6.614;2022-11-20T06:36:53;1.20;99.90
52943;DHT22;38809;53.300;6.614;2022-11-20T06:39:18;3.00;99.90
52943;DHT22;38809;53.300;6.614;2022-11-20T06:41:44;1.20;99.90
52943;DHT22;38809;53.300;6.614;2022-11-20T06:44:10;1.60;99.90
52943;DHT22;38809;53.300;6.614;2022-11-20T06:46:35;1.30;99.90
52943;DHT22;38809;53.300;6.614;2022-11-20T06:49:01;1.20;99.90
52943;DHT22;38809;53.300;6.614;2022-11-20T06:51:27;1.30;99.90
52943;DHT22;38809;53.300;6.614;2022-11-20T06:53:53;2.50;99.90
52943;DHT22;38809;53.300;6.614;2022-11-20T06:56:18;1.30;99.90
52943;DHT22;38809;53.300;6.614;2022-11-20T06:58:44;3.00;99.90
52943;DHT22;38809;53.300;6.614;2022-11-20T07:01:12;1.40;99.90
52943;DHT22;38809;53.300;6.614;2022-11-20T07:03:38;1.30;99.90
52943;DHT22;38809;53.300;6.614;2022-11-20T07:06:05;1.40;99.90
52943;DHT22;38809;53.300;6.614;2022-11-20T07:08:31;1.40;99.90
52943;DHT22;38809;53.300;6.614;2022-11-20T07:11:01;1.30;99.90
52943;DHT22;38809;53.300;6.614;2022-11-20T07:13:28;1.40;99.90
52943;DHT22;38809;53.300;6.614;2022-11-20T07:15:54;1.40;99.90
52943;DHT22;38809;53.300;6.614;2022-11-20T07:18:19;1.40;99.90
52943;DHT22;38809;53.300;6.614;2022-11-20T07:20:45;1.40;99.90
52943;DHT22;38809;53.300;6.614;2022-11-20T07:23:11;2.50;99.90
52943;DHT22;38809;53.300;6.614;2022-11-20T07:25:36;1.40;99.90
52943;DHT22;38809;53.300;6.614;2022-11-20T07:28:02;1.90;99.90
52943;DHT22;38809;53.300;6.614;2022-11-20T07:30:29;1.40;99.90
52943;DHT22;38809;53.300;6.614;2022-11-20T07:32:56;2.10;99.90
52943;DHT22;38809;53.300;6.614;2022-11-20T07:35:23;1.50;99.90
52943;DHT22;38809;53.300;6.614;2022-11-20T07:37:49;1.50;99.90
52943;DHT22;38809;53.300;6.614;2022-11-20T07:40:16;1.50;99.90
52943;DHT22;38809;53.300;6.614;2022-11-20T07:42:52;1.50;99.90
52943;DHT22;38809;53.300;6.614;2022-11-20T07:45:22;1.60;99.90
52943;DHT22;38809;53.300;6.614;2022-11-20T07:47:48;1.50;99.90
52943;DHT22;38809;53.300;6.614;2022-11-20T07:50:14;1.50;99.90
52943;DHT22;38809;53.300;6.614;2022-11-20T07:52:40;1.60;99.90
52943;DHT22;38809;53.300;6.614;2022-11-20T07:55:07;1.60;99.90
52943;DHT22;38809;53.300;6.614;2022-11-20T07:57:33;1.60;99.90
52943;DHT22;38809;53.300;6.614;2022-11-20T07:59:58;1.60;99.90
52943;DHT22;38809;53.300;6.614;2022-11-20T08:02:24;1.60;99.90
52943;DHT22;38809;53.300;6.614;2022-11-20T08:04:50;1.60;99.90
52943;DHT22;38809;53.300;6.614;2022-11-20T08:07:16;1.60;99.90
52943;DHT22;38809;53.300;6.614;2022-11-20T08:09:41;2.00;99.90
52943;DHT22;38809;53.300;6.614;2022-11-20T08:12:07;1.70;99.90
52943;DHT22;38809;53.300;6.614;2022-11-20T08:14:51;1.70;99.90
52943;DHT22;38809;53.300;6.614;2022-11-20T08:17:17;1.80;99.90
52943;DHT22;38809;53.300;6.614;2022-11-20T08:19:43;1.70;99.90
52943;DHT22;38809;53.300;6.614;2022-11-20T08:22:08;2.00;99.90
52943;DHT22;38809;53.300;6.614;2022-11-20T08:24:34;2.00;99.90
52943;DHT22;38809;53.300;6.614;2022-11-20T08:27:00;2.00;99.90
52943;DHT22;38809;53.300;6.614;2022-11-20T08:29:26;2.10;99.90
52943;DHT22;38809;53.300;6.614;2022-11-20T08:31:52;1.80;99.90
52943;DHT22;38809;53.300;6.614;2022-11-20T08:34:18;1.80;99.90
52943;DHT22;38809;53.300;6.614;2022-11-20T08:36:43;3.20;99.90
52943;DHT22;38809;53.300;6.614;2022-11-20T08:39:12;1.90;99.90
52943;DHT22;38809;53.300;6.614;2022-11-20T08:41:38;2.60;99.90
52943;DHT22;38809;53.300;6.614;2022-11-20T08:44:07;1.90;99.90
52943;DHT22;38809;53.300;6.614;2022-11-20T08:46:39;1.90;99.90
52943;DHT22;38809;53.300;6.614;2022-11-20T08:49:08;1.90;99.90
52943;DHT22;38809;53.300;6.614;2022-11-20T08:51:35;1.90;99.90
52943;DHT22;38809;53.300;6.614;2022-11-20T08:54:01;3.70;99.90
52943;DHT22;38809;53.300;6.614;2022-11-20T08:56:27;2.00;99.90
52943;DHT22;38809;53.300;6.614;2022-11-20T08:58:53;2.80;99.90
52943;DHT22;38809;53.300;6.614;2022-11-20T09:01:20;3.80;99.90
52943;DHT22;38809;53.300;6.614;2022-11-20T09:03:47;3.50;99.90
52943;DHT22;38809;53.300;6.614;2022-11-20T09:06:13;2.10;99.90
52943;DHT22;38809;53.300;6.614;2022-11-20T09:08:39;2.20;99.90
52943;DHT22;38809;53.300;6.614;2022-11-20T09:11:05;2.20;99.90
52943;DHT22;38809;53.300;6.614;2022-11-20T09:13:31;3.70;99.90
52943;DHT22;38809;53.300;6.614;2022-11-20T09:15:58;2.20;99.90
52943;DHT22;38809;53.300;6.614;2022-11-20T09:18:25;2.30;99.90
52943;DHT22;38809;53.300;6.614;2022-11-20T09:20:51;4.00;99.90
52943;DHT22;38809;53.300;6.614;2022-11-20T09:23:17;2.30;99.90
52943;DHT22;38809;53.300;6.614;2022-11-20T09:25:43;2.30;99.90
52943;DHT22;38809;53.300;6.614;2022-11-20T09:28:09;4.00;99.90
52943;DHT22;38809;53.300;6.614;2022-11-20T09:30:35;3.00;99.90
52943;DHT22;38809;53.300;6.614;2022-11-20T09:33:01;2.30;99.90
52943;DHT22;38809;53.300;6.614;2022-11-20T09:35:26;2.30;99.90
52943;DHT22;38809;53.300;6.614;2022-11-20T09:37:52;2.30;99.90
52943;DHT22;38809;53.300;6.614;2022-11-20T09:40:23;2.70;99.90
52943;DHT22;38809;53.300;6.614;2022-11-20T09:42:58;2.30;99.90
52943;DHT22;38809;53.300;6.614;2022-11-20T09:48:21;2.40;99.90
52943;DHT22;38809;53.300;6.614;2022-11-20T09:56:45;2.50;99.90
52943;DHT22;38809;53.300;6.614;2022-11-20T10:01:52;2.70;99.90
52943;DHT22;38809;53.300;6.614;2022-11-20T10:04:20;4.10;99.90
52943;DHT22;38809;53.300;6.614;2022-11-20T10:07:03;2.90;99.90
52943;DHT22;38809;53.300;6.614;2022-11-20T10:09:36;2.80;99.90
52943;DHT22;38809;53.300;6.614;2022-11-20T10:12:22;2.80;99.90
52943;DHT22;38809;53.300;6.614;2022-11-20T10:26:21;3.00;99.90
52943;DHT22;38809;53.300;6.614;2022-11-20T10:31:53;3.20;99.90
52943;DHT22;38809;53.300;6.614;2022-11-20T10:34:58;4.70;99.90
52943;DHT22;38809;53.300;6.614;2022-11-20T10:37:27;3.10;99.90
52943;DHT22;38809;53.300;6.614;2022-11-20T10:42:48;3.30;99.90
52943;DHT22;38809;53.300;6.614;2022-11-20T10:48:20;3.40;99.90
52943;DHT22;38809;53.300;6.614;2022-11-20T10:51:19;3.30;99.90
52943;DHT22;38809;53.300;6.614;2022-11-20T10:56:20;3.50;99.90
52943;DHT22;38809;53.300;6.614;2022-11-20T10:58:52;3.50;99.90
52943;DHT22;38809;53.300;6.614;2022-11-20T11:01:22;3.90;99.90
52943;DHT22;38809;53.300;6.614;2022-11-20T11:03:52;3.90;99.90
52943;DHT22;38809;53.300;6.614;2022-11-20T11:06:36;3.70;99.90
52943;DHT22;38809;53.300;6.614;2022-11-20T11:09:13;4.20;99.90
52943;DHT22;38809;53.300;6.614;2022-11-20T11:11:41;3.70;99.90
52943;DHT22;38809;53.300;6.614;2022-11-20T11:14:10;4.40;99.90
52943;DHT22;38809;53.300;6.614;2022-11-20T11:16:50;3.60;99.90
52943;DHT22;38809;53.300;6.614;2022-11-20T11:19:16;3.70;99.90
52943;DHT22;38809;53.300;6.614;2022-11-20T11:21:52;3.70;99.90
52943;DHT22;38809;53.300;6.614;2022-11-20T11:24:26;3.70;99.90
52943;DHT22;38809;53.300;6.614;2022-11-20T11:29:23;3.60;99.90
52943;DHT22;38809;53.300;6.614;2022-11-20T11:31:49;4.60;99.90
52943;DHT22;38809;53.300;6.614;2022-11-20T11:34:16;3.40;99.90
52943;DHT22;38809;53.300;6.614;2022-11-20T11:36:52;3.30;99.90
52943;DHT22;38809;53.300;6.614;2022-11-20T11:39:20;3.30;99.90
52943;DHT22;38809;53.300;6.614;2022-11-20T11:41:47;3.30;99.90
52943;DHT22;38809;53.300;6.614;2022-11-20T11:44:19;4.80;99.90
52943;DHT22;38809;53.300;6.614;2022-11-20T11:47:05;3.40;99.90
52943;DHT22;38809;53.300;6.614;2022-11-20T11:49:34;3.40;99.90
52943;DHT22;38809;53.300;6.614;2022-11-20T11:52:15;5.20;99.90
52943;DHT22;38809;53.300;6.614;2022-11-20T11:54:57;4.20;99.90
52943;DHT22;38809;53.300;6.614;2022-11-20T12:00:09;3.70;99.90
52943;DHT22;38809;53.300;6.614;2022-11-20T12:05:30;4.10;99.90
52943;DHT22;38809;53.300;6.614;2022-11-20T12:08:05;3.60;99.90
52943;DHT22;38809;53.300;6.614;2022-11-20T12:16:04;3.50;99.90
52943;DHT22;38809;53.300;6.614;2022-11-20T12:18:30;4.20;99.90
52943;DHT22;38809;53.300;6.614;2022-11-20T12:34:31;3.60;99.90
52943;DHT22;38809;53.300;6.614;2022-11-20T12:37:35;3.70;99.90
52943;DHT22;38809;53.300;6.614;2022-11-20T12:43:24;3.80;99.90
52943;DHT22;38809;53.300;6.614;2022-11-20T12:51:27;3.90;99.90
52943;DHT22;38809;53.300;6.614;2022-11-20T12:57:05;3.90;99.90
52943;DHT22;38809;53.300;6.614;2022-11-20T13:08:24;3.80;99.90
52943;DHT22;38809;53.300;6.614;2022-11-20T13:11:02;5.20;99.90
52943;DHT22;38809;53.300;6.614;2022-11-20T13:14:03;3.80;99.90
52943;DHT22;38809;53.300;6.614;2022-11-20T13:16:36;3.90;99.90
52943;DHT22;38809;53.300;6.614;2022-11-20T13:19:04;3.90;99.90
52943;DHT22;38809;53.300;6.614;2022-11-20T13:21:40;3.80;99.90
52943;DHT22;38809;53.300;6.614;2022-11-20T13:24:19;3.80;99.90
52943;DHT22;38809;53.300;6.614;2022-11-20T13:26:46;3.80;99.90
52943;DHT22;38809;53.300;6.614;2022-11-20T13:29:16;3.80;99.90
52943;DHT22;38809;53.300;6.614;2022-11-20T13:31:45;3.80;99.90
52943;DHT22;38809;53.300;6.614;2022-11-20T13:34:24;3.90;99.90
52943;DHT22;38809;53.300;6.614;2022-11-20T13:36:52;3.80;99.90
52943;DHT22;38809;53.300;6.614;2022-11-20T13:39:37;3.80;99.90
52943;DHT22;38809;53.300;6.614;2022-11-20T13:44:42;3.80;99.90
52943;DHT22;38809;53.300;6.614;2022-11-20T13:47:24;3.80;99.90
52943;DHT22;38809;53.300;6.614;2022-11-20T13:49:51;3.70;99.90
52943;DHT22;38809;53.300;6.614;2022-11-20T13:52:47;3.70;99.90
52943;DHT22;38809;53.300;6.614;2022-11-20T13:55:31;3.60;99.90
52943;DHT22;38809;53.300;6.614;2022-11-20T14:00:32;3.60;99.90
52943;DHT22;38809;53.300;6.614;2022-11-20T14:03:10;4.30;99.90
52943;DHT22;38809;53.300;6.614;2022-11-20T14:05:49;3.50;99.90
52943;DHT22;38809;53.300;6.614;2022-11-20T14:08:36;3.50;99.90
52943;DHT22;38809;53.300;6.614;2022-11-20T14:11:27;3.50;99.90
52943;DHT22;38809;53.300;6.614;2022-11-20T14:16:28;3.40;99.90
52943;DHT22;38809;53.300;6.614;2022-11-20T14:18:55;3.30;99.90
52943;DHT22;38809;53.300;6.614;2022-11-20T14:21:29;5.10;99.90
52943;DHT22;38809;53.300;6.614;2022-11-20T14:24:10;4.30;99.90
52943;DHT22;38809;53.300;6.614;2022-11-20T14:26:38;3.40;99.90
52943;DHT22;38809;53.300;6.614;2022-11-20T14:29:22;3.20;99.90
52943;DHT22;38809;53.300;6.614;2022-11-20T14:31:53;3.20;99.90
52943;DHT22;38809;53.300;6.614;2022-11-20T14:34:22;4.70;99.90
52943;DHT22;38809;53.300;6.614;2022-11-20T14:36:55;3.60;99.90
52943;DHT22;38809;53.300;6.614;2022-11-20T14:39:25;3.00;99.90
52943;DHT22;38809;53.300;6.614;2022-11-20T14:41:52;3.90;99.90
52943;DHT22;38809;53.300;6.614;2022-11-20T14:44:23;3.10;99.90
52943;DHT22;38809;53.300;6.614;2022-11-20T14:46:52;2.90;99.90
52943;DHT22;38809;53.300;6.614;2022-11-20T14:49:19;2.80;99.90
52943;DHT22;38809;53.300;6.614;2022-11-20T14:51:45;3.30;99.90
52943;DHT22;38809;53.300;6.614;2022-11-20T14:54:16;4.00;99.90
52943;DHT22;38809;53.300;6.614;2022-11-20T14:56:42;2.80;99.90
52943;DHT22;38809;53.300;6.614;2022-11-20T14:59:23;2.70;99.90
52943;DHT22;38809;53.300;6.614;2022-11-20T15:01:58;3.20;99.90
52943;DHT22;38809;53.300;6.614;2022-11-20T15:04:24;3.50;99.90
52943;DHT22;38809;53.300;6.614;2022-11-20T15:06:55;2.70;99.90
52943;DHT22;38809;53.300;6.614;2022-11-20T15:09:21;2.70;99.90
52943;DHT22;38809;53.300;6.614;2022-11-20T15:12:01;2.60;99.90
52943;DHT22;38809;53.300;6.614;2022-11-20T15:14:28;2.50;99.90
52943;DHT22;38809;53.300;6.614;2022-11-20T15:16:55;2.60;99.90
52943;DHT22;38809;53.300;6.614;2022-11-20T15:19:23;4.20;99.90
52943;DHT22;38809;53.300;6.614;2022-11-20T15:21:50;3.40;99.90
52943;DHT22;38809;53.300;6.614;2022-11-20T15:24:16;3.20;99.90
52943;DHT22;38809;53.300;6.614;2022-11-20T15:26:42;2.60;99.90
52943;DHT22;38809;53.300;6.614;2022-11-20T15:29:10;2.50;99.90
52943;DHT22;38809;53.300;6.614;2022-11-20T15:31:37;2.40;99.90
52943;DHT22;38809;53.300;6.614;2022-11-20T15:34:16;3.30;99.90
52943;DHT22;38809;53.300;6.614;2022-11-20T15:36:42;2.40;99.90
52943;DHT22;38809;53.300;6.614;2022-11-20T15:39:09;2.30;99.90
52943;DHT22;38809;53.300;6.614;2022-11-20T15:41:35;2.20;99.90
52943;DHT22;38809;53.300;6.614;2022-11-20T15:44:01;3.00;99.90
52943;DHT22;38809;53.300;6.614;2022-11-20T15:46:29;3.50;99.90
52943;DHT22;38809;53.300;6.614;2022-11-20T15:48:56;4.00;99.90
52943;DHT22;38809;53.300;6.614;2022-11-20T15:51:37;2.90;99.90
52943;DHT22;38809;53.300;6.614;2022-11-20T15:54:14;2.20;99.90
52943;DHT22;38809;53.300;6.614;2022-11-20T15:56:40;2.20;99.90
52943;DHT22;38809;53.300;6.614;2022-11-20T15:59:06;2.90;99.90
52943;DHT22;38809;53.300;6.614;2022-11-20T16:01:32;2.20;99.90
52943;DHT22;38809;53.300;6.614;2022-11-20T16:03:59;2.10;99.90
52943;DHT22;38809;53.300;6.614;2022-11-20T16:06:25;2.10;99.90
52943;DHT22;38809;53.300;6.614;2022-11-20T16:08:50;2.10;99.90
52943;DHT22;38809;53.300;6.614;2022-11-20T16:11:17;2.30;99.90
52943;DHT22;38809;53.300;6.614;2022-11-20T16:13:44;2.10;99.90
52943;DHT22;38809;53.300;6.614;2022-11-20T16:16:33;2.00;99.90
52943;DHT22;38809;53.300;6.614;2022-11-20T16:19:00;2.00;99.90
52943;DHT22;38809;53.300;6.614;2022-11-20T16:21:26;2.20;99.90
52943;DHT22;38809;53.300;6.614;2022-11-20T16:23:59;2.00;99.90
52943;DHT22;38809;53.300;6.614;2022-11-20T16:26:25;2.80;99.90
52943;DHT22;38809;53.300;6.614;2022-11-20T16:28:51;1.90;99.90
52943;DHT22;38809;53.300;6.614;2022-11-20T16:31:18;2.00;99.90
52943;DHT22;38809;53.300;6.614;2022-11-20T16:33:52;2.80;99.90
52943;DHT22;38809;53.300;6.614;2022-11-20T16:36:19;1.90;99.90
52943;DHT22;38809;53.300;6.614;2022-11-20T16:38:45;1.80;99.90
52943;DHT22;38809;53.300;6.614;2022-11-20T16:41:14;1.90;99.90
52943;DHT22;38809;53.300;6.614;2022-11-20T16:43:50;1.90;99.90
52943;DHT22;38809;53.300;6.614;2022-11-20T16:46:17;1.90;99.90
52943;DHT22;38809;53.300;6.614;2022-11-20T16:48:43;1.90;99.90
52943;DHT22;38809;53.300;6.614;2022-11-20T16:51:11;1.90;99.90
52943;DHT22;38809;53.300;6.614;2022-11-20T16:53:37;1.90;99.90
52943;DHT22;38809;53.300;6.614;2022-11-20T16:58:35;1.80;99.90
52943;DHT22;38809;53.300;6.614;2022-11-20T17:01:07;1.90;99.90
52943;DHT22;38809;53.300;6.614;2022-11-20T17:03:36;2.20;99.90
52943;DHT22;38809;53.300;6.614;2022-11-20T17:06:13;2.00;99.90
52943;DHT22;38809;53.300;6.614;2022-11-20T17:08:39;1.80;99.90
52943;DHT22;38809;53.300;6.614;2022-11-20T17:11:09;1.80;99.90
52943;DHT22;38809;53.300;6.614;2022-11-20T17:13:36;1.80;99.90
52943;DHT22;38809;53.300;6.614;2022-11-20T17:16:11;1.70;99.90
52943;DHT22;38809;53.300;6.614;2022-11-20T17:18:37;2.60;99.90
52943;DHT22;38809;53.300;6.614;2022-11-20T17:21:03;1.70;99.90
52943;DHT22;38809;53.300;6.614;2022-11-20T17:23:31;3.20;99.90
52943;DHT22;38809;53.300;6.614;2022-11-20T17:28:27;1.80;99.90
52943;DHT22;38809;53.300;6.614;2022-11-20T17:30:58;1.80;99.90
52943;DHT22;38809;53.300;6.614;2022-11-20T17:33:24;1.70;99.90
52943;DHT22;38809;53.300;6.614;2022-11-20T17:35:50;1.80;99.90
52943;DHT22;38809;53.300;6.614;2022-11-20T17:38:15;2.80;99.90
52943;DHT22;38809;53.300;6.614;2022-11-20T17:40:41;1.80;99.90
52943;DHT22;38809;53.300;6.614;2022-11-20T17:43:07;1.90;99.90